sensor_id;sensor_type;location;lat;lon;timestamp;P1;durP1;ratioP1;P2;durP2;ratioP2
24084;SDS011;12268;52.110;5.548;2022-12-29T00:01:34;3.25;;;1.90;;
24084;SDS011;12268;52.110;5.548;2022-12-29T00:04:00;4.03;;;2.30;;
24084;SDS011;12268;52.110;5.548;2022-12-29T00:06:26;4.55;;;2.47;;
24084;SDS011;12268;52.110;5.548;2022-12-29T00:08:51;5.28;;;2.22;;
24084;SDS011;12268;52.110;5.548;2022-12-29T00:11:18;2.55;;;2.03;;
24084;SDS011;12268;52.110;5.548;2022-12-29T00:13:45;3.22;;;2.30;;
24084;SDS011;12268;52.110;5.548;2022-12-29T00:16:30;2.97;;;1.77;;
24084;SDS011;12268;52.110;5.548;2022-12-29T00:18:57;3.17;;;2.28;;
24084;SDS011;12268;52.110;5.548;2022-12-29T00:21:23;2.50;;;1.77;;
24084;SDS011;12268;52.110;5.548;2022-12-29T00:24:09;4.07;;;2.40;;
24084;SDS011;12268;52.110;5.548;2022-12-29T00:29:51;3.78;;;2.30;;
24084;SDS011;12268;52.110;5.548;2022-12-29T00:32:35;3.00;;;2.00;;
24084;SDS011;12268;52.110;5.548;2022-12-29T00:35:35;4.47;;;1.85;;
24084;SDS011;12268;52.110;5.548;2022-12-29T00:38:23;4.55;;;1.67;;
24084;SDS011;12268;52.110;5.548;2022-12-29T00:41:06;3.40;;;2.08;;
24084;SDS011;12268;52.110;5.548;2022-12-29T00:43:50;2.92;;;2.10;;
24084;SDS011;12268;52.110;5.548;2022-12-29T00:46:35;2.55;;;1.67;;
24084;SDS011;12268;52.110;5.548;2022-12-29T00:49:01;2.90;;;2.08;;
24084;SDS011;12268;52.110;5.548;2022-12-29T00:51:46;3.13;;;2.00;;
24084;SDS011;12268;52.110;5.548;2022-12-29T00:54:12;4.70;;;3.05;;
24084;SDS011;12268;52.110;5.548;2022-12-29T00:56:38;3.38;;;2.13;;
24084;SDS011;12268;52.110;5.548;2022-12-29T00:59:05;3.83;;;2.10;;
24084;SDS011;12268;52.110;5.548;2022-12-29T01:01:32;4.25;;;2.15;;
24084;SDS011;12268;52.110;5.548;2022-12-29T01:03:58;3.75;;;2.60;;
24084;SDS011;12268;52.110;5.548;2022-12-29T01:06:24;3.25;;;2.42;;
24084;SDS011;12268;52.110;5.548;2022-12-29T01:08:50;4.18;;;2.13;;
24084;SDS011;12268;52.110;5.548;2022-12-29T01:11:36;3.15;;;1.63;;
24084;SDS011;12268;52.110;5.548;2022-12-29T01:14:03;2.67;;;1.90;;
24084;SDS011;12268;52.110;5.548;2022-12-29T01:16:29;2.20;;;1.70;;
24084;SDS011;12268;52.110;5.548;2022-12-29T01:18:55;2.50;;;1.50;;
24084;SDS011;12268;52.110;5.548;2022-12-29T01:21:20;3.33;;;1.60;;
24084;SDS011;12268;52.110;5.548;2022-12-29T01:23:46;1.70;;;1.50;;
24084;SDS011;12268;52.110;5.548;2022-12-29T01:26:12;2.00;;;1.50;;
24084;SDS011;12268;52.110;5.548;2022-12-29T01:28:39;1.17;;;0.90;;
24084;SDS011;12268;52.110;5.548;2022-12-29T01:31:06;2.35;;;1.55;;
24084;SDS011;12268;52.110;5.548;2022-12-29T01:33:36;3.00;;;1.45;;
24084;SDS011;12268;52.110;5.548;2022-12-29T01:36:02;1.42;;;1.20;;
24084;SDS011;12268;52.110;5.548;2022-12-29T01:38:29;5.35;;;1.77;;
24084;SDS011;12268;52.110;5.548;2022-12-29T01:40:55;2.20;;;1.40;;
24084;SDS011;12268;52.110;5.548;2022-12-29T01:43:20;5.03;;;1.90;;
24084;SDS011;12268;52.110;5.548;2022-12-29T01:45:52;3.38;;;1.83;;
24084;SDS011;12268;52.110;5.548;2022-12-29T01:48:19;2.15;;;1.60;;
24084;SDS011;12268;52.110;5.548;2022-12-29T01:50:46;6.07;;;1.98;;
24084;SDS011;12268;52.110;5.548;2022-12-29T01:53:25;3.40;;;1.85;;
24084;SDS011;12268;52.110;5.548;2022-12-29T01:55:58;3.38;;;1.67;;
24084;SDS011;12268;52.110;5.548;2022-12-29T01:58:29;2.60;;;1.83;;
24084;SDS011;12268;52.110;5.548;2022-12-29T02:00:57;1.90;;;1.50;;
24084;SDS011;12268;52.110;5.548;2022-12-29T02:03:24;3.35;;;1.42;;
24084;SDS011;12268;52.110;5.548;2022-12-29T02:08:23;3.83;;;1.98;;
24084;SDS011;12268;52.110;5.548;2022-12-29T02:10:52;4.28;;;2.35;;
24084;SDS011;12268;52.110;5.548;2022-12-29T02:13:20;3.60;;;2.15;;
24084;SDS011;12268;52.110;5.548;2022-12-29T02:18:35;7.32;;;2.60;;
24084;SDS011;12268;52.110;5.548;2022-12-29T02:21:29;5.05;;;2.60;;
24084;SDS011;12268;52.110;5.548;2022-12-29T02:24:14;2.95;;;1.73;;
24084;SDS011;12268;52.110;5.548;2022-12-29T02:27:08;4.45;;;2.33;;
24084;SDS011;12268;52.110;5.548;2022-12-29T02:40:31;2.33;;;1.65;;
24084;SDS011;12268;52.110;5.548;2022-12-29T02:45:58;2.72;;;1.42;;
24084;SDS011;12268;52.110;5.548;2022-12-29T02:51:06;1.75;;;0.98;;
24084;SDS011;12268;52.110;5.548;2022-12-29T02:53:53;2.22;;;1.17;;
24084;SDS011;12268;52.110;5.548;2022-12-29T02:56:39;2.40;;;1.10;;
24084;SDS011;12268;52.110;5.548;2022-12-29T02:59:05;3.90;;;1.60;;
24084;SDS011;12268;52.110;5.548;2022-12-29T03:01:36;3.30;;;1.23;;
24084;SDS011;12268;52.110;5.548;2022-12-29T03:04:37;2.25;;;1.17;;
24084;SDS011;12268;52.110;5.548;2022-12-29T03:12:30;4.13;;;1.60;;
24084;SDS011;12268;52.110;5.548;2022-12-29T03:15:41;2.70;;;1.73;;
24084;SDS011;12268;52.110;5.548;2022-12-29T03:18:32;2.20;;;1.70;;
24084;SDS011;12268;52.110;5.548;2022-12-29T03:23:37;1.98;;;1.83;;
24084;SDS011;12268;52.110;5.548;2022-12-29T03:26:06;3.60;;;1.75;;
24084;SDS011;12268;52.110;5.548;2022-12-29T03:28:36;1.88;;;1.55;;
24084;SDS011;12268;52.110;5.548;2022-12-29T03:31:29;2.55;;;1.70;;
24084;SDS011;12268;52.110;5.548;2022-12-29T03:33:55;3.03;;;1.75;;
24084;SDS011;12268;52.110;5.548;2022-12-29T03:36:29;2.28;;;1.60;;
24084;SDS011;12268;52.110;5.548;2022-12-29T03:39:06;4.38;;;1.73;;
24084;SDS011;12268;52.110;5.548;2022-12-29T03:41:39;3.10;;;1.83;;
24084;SDS011;12268;52.110;5.548;2022-12-29T03:44:07;1.63;;;1.25;;
24084;SDS011;12268;52.110;5.548;2022-12-29T03:46:34;2.63;;;1.58;;
24084;SDS011;12268;52.110;5.548;2022-12-29T03:49:00;4.43;;;1.60;;
24084;SDS011;12268;52.110;5.548;2022-12-29T03:51:25;4.70;;;1.65;;
24084;SDS011;12268;52.110;5.548;2022-12-29T03:53:51;1.95;;;1.50;;
24084;SDS011;12268;52.110;5.548;2022-12-29T03:56:16;3.00;;;1.23;;
24084;SDS011;12268;52.110;5.548;2022-12-29T03:58:42;2.47;;;1.40;;
24084;SDS011;12268;52.110;5.548;2022-12-29T04:01:07;2.53;;;1.65;;
24084;SDS011;12268;52.110;5.548;2022-12-29T04:03:33;2.53;;;1.45;;
24084;SDS011;12268;52.110;5.548;2022-12-29T04:05:58;2.97;;;1.55;;
24084;SDS011;12268;52.110;5.548;2022-12-29T04:08:24;2.38;;;1.40;;
24084;SDS011;12268;52.110;5.548;2022-12-29T04:10:50;3.35;;;1.60;;
24084;SDS011;12268;52.110;5.548;2022-12-29T04:13:15;5.57;;;1.80;;
24084;SDS011;12268;52.110;5.548;2022-12-29T04:15:42;2.95;;;1.85;;
24084;SDS011;12268;52.110;5.548;2022-12-29T04:18:08;4.30;;;1.98;;
24084;SDS011;12268;52.110;5.548;2022-12-29T04:20:33;4.43;;;2.15;;
24084;SDS011;12268;52.110;5.548;2022-12-29T04:23:17;3.10;;;1.83;;
24084;SDS011;12268;52.110;5.548;2022-12-29T04:25:44;4.85;;;1.90;;
24084;SDS011;12268;52.110;5.548;2022-12-29T04:28:13;2.20;;;1.45;;
24084;SDS011;12268;52.110;5.548;2022-12-29T04:30:39;3.40;;;1.63;;
24084;SDS011;12268;52.110;5.548;2022-12-29T04:33:04;5.72;;;1.60;;
24084;SDS011;12268;52.110;5.548;2022-12-29T04:35:30;2.40;;;1.02;;
24084;SDS011;12268;52.110;5.548;2022-12-29T04:37:55;5.07;;;1.25;;
24084;SDS011;12268;52.110;5.548;2022-12-29T04:40:21;1.70;;;1.00;;
24084;SDS011;12268;52.110;5.548;2022-12-29T04:42:48;2.22;;;1.10;;
24084;SDS011;12268;52.110;5.548;2022-12-29T04:45:13;2.20;;;1.20;;
24084;SDS011;12268;52.110;5.548;2022-12-29T04:47:39;4.55;;;1.45;;
24084;SDS011;12268;52.110;5.548;2022-12-29T04:50:05;6.03;;;1.48;;
24084;SDS011;12268;52.110;5.548;2022-12-29T04:52:31;4.93;;;1.50;;
24084;SDS011;12268;52.110;5.548;2022-12-29T04:54:56;3.50;;;1.27;;
24084;SDS011;12268;52.110;5.548;2022-12-29T04:57:22;3.10;;;1.00;;
24084;SDS011;12268;52.110;5.548;2022-12-29T04:59:47;4.32;;;0.95;;
24084;SDS011;12268;52.110;5.548;2022-12-29T05:02:13;4.72;;;1.20;;
24084;SDS011;12268;52.110;5.548;2022-12-29T05:04:38;4.35;;;1.23;;
24084;SDS011;12268;52.110;5.548;2022-12-29T05:07:04;3.30;;;1.42;;
24084;SDS011;12268;52.110;5.548;2022-12-29T05:09:29;7.38;;;1.60;;
24084;SDS011;12268;52.110;5.548;2022-12-29T05:11:55;1.88;;;0.90;;
24084;SDS011;12268;52.110;5.548;2022-12-29T05:14:20;4.10;;;1.08;;
24084;SDS011;12268;52.110;5.548;2022-12-29T05:16:46;7.97;;;1.27;;
24084;SDS011;12268;52.110;5.548;2022-12-29T05:19:12;4.57;;;1.40;;
24084;SDS011;12268;52.110;5.548;2022-12-29T05:21:38;4.18;;;1.40;;
24084;SDS011;12268;52.110;5.548;2022-12-29T05:24:03;3.13;;;1.10;;
24084;SDS011;12268;52.110;5.548;2022-12-29T05:26:29;4.03;;;1.42;;
24084;SDS011;12268;52.110;5.548;2022-12-29T05:28:55;6.20;;;1.23;;
24084;SDS011;12268;52.110;5.548;2022-12-29T05:31:20;5.93;;;1.38;;
24084;SDS011;12268;52.110;5.548;2022-12-29T05:33:46;7.22;;;1.33;;
24084;SDS011;12268;52.110;5.548;2022-12-29T05:36:11;3.75;;;1.17;;
24084;SDS011;12268;52.110;5.548;2022-12-29T05:38:37;3.03;;;1.15;;
24084;SDS011;12268;52.110;5.548;2022-12-29T05:41:02;4.35;;;1.15;;
24084;SDS011;12268;52.110;5.548;2022-12-29T05:43:28;2.50;;;1.08;;
24084;SDS011;12268;52.110;5.548;2022-12-29T05:45:53;12.18;;;2.72;;
24084;SDS011;12268;52.110;5.548;2022-12-29T05:48:20;5.13;;;1.40;;
24084;SDS011;12268;52.110;5.548;2022-12-29T05:50:49;4.85;;;1.00;;
24084;SDS011;12268;52.110;5.548;2022-12-29T05:53:15;4.57;;;1.30;;
24084;SDS011;12268;52.110;5.548;2022-12-29T05:55:41;5.80;;;1.30;;
24084;SDS011;12268;52.110;5.548;2022-12-29T05:58:08;4.18;;;1.23;;
24084;SDS011;12268;52.110;5.548;2022-12-29T06:00:33;5.68;;;1.70;;
24084;SDS011;12268;52.110;5.548;2022-12-29T06:02:59;6.93;;;1.70;;
24084;SDS011;12268;52.110;5.548;2022-12-29T06:05:25;5.13;;;1.30;;
24084;SDS011;12268;52.110;5.548;2022-12-29T06:07:50;3.53;;;1.40;;
24084;SDS011;12268;52.110;5.548;2022-12-29T06:10:16;6.85;;;1.50;;
24084;SDS011;12268;52.110;5.548;2022-12-29T06:12:42;5.22;;;1.50;;
24084;SDS011;12268;52.110;5.548;2022-12-29T06:15:08;3.58;;;1.30;;
24084;SDS011;12268;52.110;5.548;2022-12-29T06:17:34;5.18;;;1.52;;
24084;SDS011;12268;52.110;5.548;2022-12-29T06:19:59;4.60;;;0.98;;
24084;SDS011;12268;52.110;5.548;2022-12-29T06:22:25;8.10;;;1.50;;
24084;SDS011;12268;52.110;5.548;2022-12-29T06:24:50;5.45;;;1.88;;
24084;SDS011;12268;52.110;5.548;2022-12-29T06:27:16;3.20;;;1.30;;
24084;SDS011;12268;52.110;5.548;2022-12-29T06:29:41;6.25;;;1.73;;
24084;SDS011;12268;52.110;5.548;2022-12-29T06:32:07;5.53;;;1.52;;
24084;SDS011;12268;52.110;5.548;2022-12-29T06:34:33;7.28;;;1.92;;
24084;SDS011;12268;52.110;5.548;2022-12-29T06:36:59;6.28;;;1.80;;
24084;SDS011;12268;52.110;5.548;2022-12-29T06:39:24;4.53;;;1.33;;
24084;SDS011;12268;52.110;5.548;2022-12-29T06:41:53;4.82;;;1.35;;
24084;SDS011;12268;52.110;5.548;2022-12-29T06:44:20;16.35;;;2.10;;
24084;SDS011;12268;52.110;5.548;2022-12-29T06:46:46;7.40;;;1.67;;
24084;SDS011;12268;52.110;5.548;2022-12-29T06:49:12;9.15;;;2.25;;
24084;SDS011;12268;52.110;5.548;2022-12-29T06:51:38;8.30;;;1.83;;
24084;SDS011;12268;52.110;5.548;2022-12-29T06:54:03;3.95;;;1.80;;
24084;SDS011;12268;52.110;5.548;2022-12-29T06:56:29;6.68;;;1.65;;
24084;SDS011;12268;52.110;5.548;2022-12-29T06:58:54;4.47;;;1.17;;
24084;SDS011;12268;52.110;5.548;2022-12-29T07:01:20;3.17;;;1.15;;
24084;SDS011;12268;52.110;5.548;2022-12-29T07:03:45;2.60;;;1.05;;
24084;SDS011;12268;52.110;5.548;2022-12-29T07:06:11;2.10;;;0.90;;
24084;SDS011;12268;52.110;5.548;2022-12-29T07:08:37;5.63;;;1.33;;
24084;SDS011;12268;52.110;5.548;2022-12-29T07:11:03;3.45;;;0.93;;
24084;SDS011;12268;52.110;5.548;2022-12-29T07:13:29;3.60;;;1.45;;
24084;SDS011;12268;52.110;5.548;2022-12-29T07:15:54;2.83;;;1.10;;
24084;SDS011;12268;52.110;5.548;2022-12-29T07:18:20;2.10;;;1.13;;
24084;SDS011;12268;52.110;5.548;2022-12-29T07:20:45;9.02;;;1.42;;
24084;SDS011;12268;52.110;5.548;2022-12-29T07:23:11;7.65;;;1.13;;
24084;SDS011;12268;52.110;5.548;2022-12-29T07:25:37;3.95;;;1.38;;
24084;SDS011;12268;52.110;5.548;2022-12-29T07:28:03;1.73;;;0.93;;
24084;SDS011;12268;52.110;5.548;2022-12-29T07:30:28;5.80;;;1.38;;
24084;SDS011;12268;52.110;5.548;2022-12-29T07:32:54;4.20;;;1.73;;
24084;SDS011;12268;52.110;5.548;2022-12-29T07:35:20;6.80;;;1.80;;
24084;SDS011;12268;52.110;5.548;2022-12-29T07:37:45;6.75;;;1.73;;
24084;SDS011;12268;52.110;5.548;2022-12-29T07:40:11;7.22;;;2.00;;
24084;SDS011;12268;52.110;5.548;2022-12-29T07:42:37;10.32;;;2.30;;
24084;SDS011;12268;52.110;5.548;2022-12-29T07:45:03;6.55;;;2.05;;
24084;SDS011;12268;52.110;5.548;2022-12-29T07:47:29;8.75;;;2.00;;
24084;SDS011;12268;52.110;5.548;2022-12-29T07:49:54;7.38;;;2.03;;
24084;SDS011;12268;52.110;5.548;2022-12-29T07:52:20;3.63;;;1.77;;
24084;SDS011;12268;52.110;5.548;2022-12-29T07:54:45;2.67;;;1.50;;
24084;SDS011;12268;52.110;5.548;2022-12-29T07:57:11;6.45;;;2.47;;
24084;SDS011;12268;52.110;5.548;2022-12-29T07:59:36;6.80;;;1.88;;
24084;SDS011;12268;52.110;5.548;2022-12-29T08:02:02;7.35;;;2.15;;
24084;SDS011;12268;52.110;5.548;2022-12-29T08:04:27;6.30;;;1.90;;
24084;SDS011;12268;52.110;5.548;2022-12-29T08:06:53;7.20;;;1.98;;
24084;SDS011;12268;52.110;5.548;2022-12-29T08:09:18;13.13;;;2.40;;
24084;SDS011;12268;52.110;5.548;2022-12-29T08:11:44;10.88;;;2.40;;
24084;SDS011;12268;52.110;5.548;2022-12-29T08:14:09;6.55;;;2.40;;
24084;SDS011;12268;52.110;5.548;2022-12-29T08:16:35;8.15;;;2.15;;
24084;SDS011;12268;52.110;5.548;2022-12-29T08:19:01;15.40;;;2.53;;
24084;SDS011;12268;52.110;5.548;2022-12-29T08:21:28;5.15;;;1.60;;
24084;SDS011;12268;52.110;5.548;2022-12-29T08:23:53;11.13;;;1.70;;
24084;SDS011;12268;52.110;5.548;2022-12-29T08:26:19;8.85;;;1.80;;
24084;SDS011;12268;52.110;5.548;2022-12-29T08:28:44;7.45;;;1.85;;
24084;SDS011;12268;52.110;5.548;2022-12-29T08:31:10;10.13;;;1.88;;
24084;SDS011;12268;52.110;5.548;2022-12-29T08:33:35;11.90;;;1.75;;
24084;SDS011;12268;52.110;5.548;2022-12-29T08:36:02;8.45;;;1.65;;
24084;SDS011;12268;52.110;5.548;2022-12-29T08:38:30;13.07;;;2.30;;
24084;SDS011;12268;52.110;5.548;2022-12-29T08:40:56;8.75;;;1.85;;
24084;SDS011;12268;52.110;5.548;2022-12-29T08:43:22;12.13;;;2.08;;
24084;SDS011;12268;52.110;5.548;2022-12-29T08:45:47;7.30;;;1.80;;
24084;SDS011;12268;52.110;5.548;2022-12-29T08:48:13;4.78;;;1.40;;
24084;SDS011;12268;52.110;5.548;2022-12-29T08:50:42;4.63;;;1.20;;
24084;SDS011;12268;52.110;5.548;2022-12-29T08:53:08;7.47;;;2.05;;
24084;SDS011;12268;52.110;5.548;2022-12-29T08:55:33;6.50;;;1.80;;
24084;SDS011;12268;52.110;5.548;2022-12-29T08:57:59;8.23;;;2.10;;
24084;SDS011;12268;52.110;5.548;2022-12-29T09:00:24;6.20;;;1.33;;
24084;SDS011;12268;52.110;5.548;2022-12-29T09:02:50;5.35;;;1.88;;
24084;SDS011;12268;52.110;5.548;2022-12-29T09:05:16;8.07;;;1.95;;
24084;SDS011;12268;52.110;5.548;2022-12-29T09:07:41;7.75;;;1.10;;
24084;SDS011;12268;52.110;5.548;2022-12-29T09:10:07;15.65;;;1.98;;
24084;SDS011;12268;52.110;5.548;2022-12-29T09:12:32;10.25;;;1.58;;
24084;SDS011;12268;52.110;5.548;2022-12-29T09:14:58;8.20;;;1.75;;
24084;SDS011;12268;52.110;5.548;2022-12-29T09:17:24;4.40;;;1.35;;
24084;SDS011;12268;52.110;5.548;2022-12-29T09:20:08;3.47;;;1.63;;
24084;SDS011;12268;52.110;5.548;2022-12-29T09:22:34;9.93;;;1.70;;
24084;SDS011;12268;52.110;5.548;2022-12-29T09:25:00;10.18;;;2.17;;
24084;SDS011;12268;52.110;5.548;2022-12-29T09:27:25;7.47;;;1.63;;
24084;SDS011;12268;52.110;5.548;2022-12-29T09:29:51;11.43;;;1.65;;
24084;SDS011;12268;52.110;5.548;2022-12-29T09:32:16;18.05;;;2.88;;
24084;SDS011;12268;52.110;5.548;2022-12-29T09:34:42;5.90;;;1.80;;
24084;SDS011;12268;52.110;5.548;2022-12-29T09:37:07;3.00;;;1.20;;
24084;SDS011;12268;52.110;5.548;2022-12-29T09:39:33;5.90;;;1.55;;
24084;SDS011;12268;52.110;5.548;2022-12-29T09:42:01;5.63;;;1.42;;
24084;SDS011;12268;52.110;5.548;2022-12-29T09:44:51;7.63;;;2.08;;
24084;SDS011;12268;52.110;5.548;2022-12-29T09:47:28;7.30;;;1.90;;
24084;SDS011;12268;52.110;5.548;2022-12-29T09:50:09;11.95;;;1.80;;
24084;SDS011;12268;52.110;5.548;2022-12-29T09:53:28;10.65;;;1.67;;
24084;SDS011;12268;52.110;5.548;2022-12-29T09:55:47;9.38;;;2.13;;
24084;SDS011;12268;52.110;5.548;2022-12-29T10:00:48;7.07;;;1.73;;
24084;SDS011;12268;52.110;5.548;2022-12-29T10:03:57;8.00;;;1.58;;
24084;SDS011;12268;52.110;5.548;2022-12-29T10:12:03;5.10;;;1.48;;
24084;SDS011;12268;52.110;5.548;2022-12-29T10:14:53;3.08;;;1.63;;
24084;SDS011;12268;52.110;5.548;2022-12-29T10:17:31;2.15;;;1.38;;
24084;SDS011;12268;52.110;5.548;2022-12-29T10:25:12;7.97;;;2.00;;
24084;SDS011;12268;52.110;5.548;2022-12-29T10:27:41;6.55;;;2.17;;
24084;SDS011;12268;52.110;5.548;2022-12-29T10:30:11;4.65;;;1.63;;
24084;SDS011;12268;52.110;5.548;2022-12-29T10:32:51;5.13;;;1.70;;
24084;SDS011;12268;52.110;5.548;2022-12-29T10:35:19;8.00;;;1.77;;
24084;SDS011;12268;52.110;5.548;2022-12-29T10:43:22;7.38;;;1.73;;
24084;SDS011;12268;52.110;5.548;2022-12-29T10:46:00;8.32;;;2.05;;
24084;SDS011;12268;52.110;5.548;2022-12-29T10:48:33;8.68;;;2.00;;
24084;SDS011;12268;52.110;5.548;2022-12-29T10:51:01;9.00;;;2.38;;
24084;SDS011;12268;52.110;5.548;2022-12-29T10:53:48;8.20;;;2.10;;
24084;SDS011;12268;52.110;5.548;2022-12-29T11:01:57;7.40;;;2.35;;
24084;SDS011;12268;52.110;5.548;2022-12-29T11:04:31;14.45;;;3.15;;
24084;SDS011;12268;52.110;5.548;2022-12-29T11:07:00;10.15;;;2.50;;
24084;SDS011;12268;52.110;5.548;2022-12-29T11:09:31;11.10;;;2.80;;
24084;SDS011;12268;52.110;5.548;2022-12-29T11:11:59;10.88;;;2.25;;
24084;SDS011;12268;52.110;5.548;2022-12-29T11:14:29;12.40;;;3.67;;
24084;SDS011;12268;52.110;5.548;2022-12-29T11:16:59;7.47;;;2.38;;
24084;SDS011;12268;52.110;5.548;2022-12-29T11:19:31;10.85;;;2.53;;
24084;SDS011;12268;52.110;5.548;2022-12-29T11:22:14;5.07;;;2.60;;
24084;SDS011;12268;52.110;5.548;2022-12-29T11:24:52;7.93;;;2.72;;
24084;SDS011;12268;52.110;5.548;2022-12-29T11:27:22;12.95;;;3.17;;
24084;SDS011;12268;52.110;5.548;2022-12-29T11:29:51;8.43;;;2.97;;
24084;SDS011;12268;52.110;5.548;2022-12-29T11:32:27;9.95;;;2.80;;
24084;SDS011;12268;52.110;5.548;2022-12-29T11:34:57;11.40;;;3.78;;
24084;SDS011;12268;52.110;5.548;2022-12-29T11:37:29;10.80;;;2.75;;
24084;SDS011;12268;52.110;5.548;2022-12-29T11:40:05;14.07;;;3.55;;
24084;SDS011;12268;52.110;5.548;2022-12-29T11:43:01;14.63;;;3.38;;
24084;SDS011;12268;52.110;5.548;2022-12-29T11:45:30;7.85;;;2.10;;
24084;SDS011;12268;52.110;5.548;2022-12-29T11:48:12;8.05;;;2.60;;
24084;SDS011;12268;52.110;5.548;2022-12-29T11:50:48;9.55;;;2.38;;
24084;SDS011;12268;52.110;5.548;2022-12-29T11:55:51;8.35;;;2.80;;
24084;SDS011;12268;52.110;5.548;2022-12-29T11:58:31;10.07;;;2.50;;
24084;SDS011;12268;52.110;5.548;2022-12-29T12:01:00;9.27;;;2.88;;
24084;SDS011;12268;52.110;5.548;2022-12-29T12:03:30;10.63;;;2.80;;
24084;SDS011;12268;52.110;5.548;2022-12-29T12:06:03;7.93;;;2.40;;
24084;SDS011;12268;52.110;5.548;2022-12-29T12:08:39;7.53;;;2.08;;
24084;SDS011;12268;52.110;5.548;2022-12-29T12:19:14;11.85;;;2.40;;
24084;SDS011;12268;52.110;5.548;2022-12-29T12:21:56;13.82;;;2.97;;
24084;SDS011;12268;52.110;5.548;2022-12-29T12:27:09;11.73;;;3.00;;
24084;SDS011;12268;52.110;5.548;2022-12-29T12:29:52;11.45;;;3.00;;
24084;SDS011;12268;52.110;5.548;2022-12-29T12:32:23;8.35;;;2.17;;
24084;SDS011;12268;52.110;5.548;2022-12-29T12:34:55;12.00;;;2.40;;
24084;SDS011;12268;52.110;5.548;2022-12-29T12:51:13;12.55;;;2.67;;
24084;SDS011;12268;52.110;5.548;2022-12-29T12:56:43;11.20;;;3.92;;
24084;SDS011;12268;52.110;5.548;2022-12-29T12:59:50;10.90;;;3.20;;
24084;SDS011;12268;52.110;5.548;2022-12-29T13:05:19;16.63;;;3.38;;
24084;SDS011;12268;52.110;5.548;2022-12-29T13:08:03;8.05;;;2.47;;
24084;SDS011;12268;52.110;5.548;2022-12-29T13:20:43;12.70;;;2.90;;
24084;SDS011;12268;52.110;5.548;2022-12-29T13:26:21;12.05;;;3.30;;
24084;SDS011;12268;52.110;5.548;2022-12-29T13:29:03;9.15;;;3.05;;
24084;SDS011;12268;52.110;5.548;2022-12-29T13:31:51;12.48;;;2.40;;
24084;SDS011;12268;52.110;5.548;2022-12-29T13:34:42;6.93;;;2.67;;
24084;SDS011;12268;52.110;5.548;2022-12-29T13:37:31;9.50;;;2.80;;
24084;SDS011;12268;52.110;5.548;2022-12-29T13:40:02;10.43;;;2.83;;
24084;SDS011;12268;52.110;5.548;2022-12-29T13:42:34;7.78;;;2.72;;
24084;SDS011;12268;52.110;5.548;2022-12-29T13:47:31;5.93;;;2.90;;
24084;SDS011;12268;52.110;5.548;2022-12-29T13:50:02;7.82;;;3.63;;
24084;SDS011;12268;52.110;5.548;2022-12-29T13:55:24;10.60;;;3.33;;
24084;SDS011;12268;52.110;5.548;2022-12-29T13:58:02;17.08;;;3.22;;
24084;SDS011;12268;52.110;5.548;2022-12-29T14:00:53;14.02;;;3.90;;
24084;SDS011;12268;52.110;5.548;2022-12-29T14:08:54;7.70;;;3.13;;
24084;SDS011;12268;52.110;5.548;2022-12-29T14:11:31;16.30;;;2.67;;
24084;SDS011;12268;52.110;5.548;2022-12-29T14:14:11;13.00;;;2.63;;
24084;SDS011;12268;52.110;5.548;2022-12-29T14:16:47;8.07;;;2.28;;
24084;SDS011;12268;52.110;5.548;2022-12-29T14:19:15;9.38;;;2.58;;
24084;SDS011;12268;52.110;5.548;2022-12-29T14:21:57;8.93;;;2.05;;
24084;SDS011;12268;52.110;5.548;2022-12-29T14:26:52;7.20;;;1.90;;
24084;SDS011;12268;52.110;5.548;2022-12-29T14:31:50;22.88;;;2.20;;
24084;SDS011;12268;52.110;5.548;2022-12-29T14:36:57;5.25;;;1.67;;
24084;SDS011;12268;52.110;5.548;2022-12-29T15:51:39;7.88;;;2.67;;
24084;SDS011;12268;52.110;5.548;2022-12-29T15:54:06;7.00;;;3.17;;
24084;SDS011;12268;52.110;5.548;2022-12-29T15:56:40;10.50;;;2.60;;
24084;SDS011;12268;52.110;5.548;2022-12-29T15:59:21;14.10;;;3.72;;
24084;SDS011;12268;52.110;5.548;2022-12-29T16:01:53;11.70;;;2.47;;
24084;SDS011;12268;52.110;5.548;2022-12-29T16:04:20;4.13;;;1.80;;
24084;SDS011;12268;52.110;5.548;2022-12-29T16:07:02;7.57;;;2.22;;
24084;SDS011;12268;52.110;5.548;2022-12-29T16:11:58;7.03;;;2.22;;
24084;SDS011;12268;52.110;5.548;2022-12-29T16:14:32;4.15;;;2.25;;
24084;SDS011;12268;52.110;5.548;2022-12-29T16:17:13;8.25;;;2.75;;
24084;SDS011;12268;52.110;5.548;2022-12-29T16:20:05;6.20;;;1.60;;
24084;SDS011;12268;52.110;5.548;2022-12-29T16:23:02;6.57;;;2.13;;
24084;SDS011;12268;52.110;5.548;2022-12-29T16:25:29;7.68;;;2.35;;
24084;SDS011;12268;52.110;5.548;2022-12-29T16:27:57;5.97;;;2.15;;
24084;SDS011;12268;52.110;5.548;2022-12-29T16:30:31;5.93;;;2.00;;
24084;SDS011;12268;52.110;5.548;2022-12-29T16:33:01;4.35;;;1.77;;
24084;SDS011;12268;52.110;5.548;2022-12-29T16:38:16;4.78;;;1.60;;
24084;SDS011;12268;52.110;5.548;2022-12-29T16:40:52;6.70;;;1.73;;
24084;SDS011;12268;52.110;5.548;2022-12-29T16:51:35;5.18;;;1.52;;
24084;SDS011;12268;52.110;5.548;2022-12-29T16:54:01;8.63;;;1.55;;
24084;SDS011;12268;52.110;5.548;2022-12-29T16:56:32;5.68;;;1.75;;
24084;SDS011;12268;52.110;5.548;2022-12-29T16:59:06;5.88;;;1.52;;
24084;SDS011;12268;52.110;5.548;2022-12-29T17:01:44;8.52;;;1.35;;
24084;SDS011;12268;52.110;5.548;2022-12-29T17:04:10;8.10;;;1.50;;
24084;SDS011;12268;52.110;5.548;2022-12-29T17:06:38;3.42;;;1.40;;
24084;SDS011;12268;52.110;5.548;2022-12-29T17:09:15;4.68;;;1.08;;
24084;SDS011;12268;52.110;5.548;2022-12-29T17:11:52;5.28;;;1.45;;
24084;SDS011;12268;52.110;5.548;2022-12-29T17:17:01;7.82;;;1.45;;
24084;SDS011;12268;52.110;5.548;2022-12-29T17:19:35;8.60;;;1.88;;
24084;SDS011;12268;52.110;5.548;2022-12-29T17:22:02;8.88;;;1.55;;
24084;SDS011;12268;52.110;5.548;2022-12-29T17:24:33;8.10;;;1.60;;
24084;SDS011;12268;52.110;5.548;2022-12-29T17:27:00;7.75;;;1.90;;
24084;SDS011;12268;52.110;5.548;2022-12-29T17:29:33;5.03;;;1.60;;
24084;SDS011;12268;52.110;5.548;2022-12-29T17:32:00;6.88;;;1.90;;
24084;SDS011;12268;52.110;5.548;2022-12-29T17:34:27;6.70;;;1.48;;
24084;SDS011;12268;52.110;5.548;2022-12-29T17:36:52;7.53;;;1.80;;
24084;SDS011;12268;52.110;5.548;2022-12-29T17:39:18;6.65;;;1.60;;
24084;SDS011;12268;52.110;5.548;2022-12-29T17:41:44;11.98;;;1.90;;
24084;SDS011;12268;52.110;5.548;2022-12-29T17:44:13;4.05;;;1.77;;
24084;SDS011;12268;52.110;5.548;2022-12-29T17:46:42;8.85;;;1.38;;
24084;SDS011;12268;52.110;5.548;2022-12-29T17:49:10;8.13;;;1.88;;
24084;SDS011;12268;52.110;5.548;2022-12-29T17:51:38;10.20;;;1.83;;
24084;SDS011;12268;52.110;5.548;2022-12-29T17:54:03;8.25;;;2.00;;
24084;SDS011;12268;52.110;5.548;2022-12-29T17:56:29;6.22;;;1.52;;
24084;SDS011;12268;52.110;5.548;2022-12-29T17:58:55;10.48;;;1.73;;
24084;SDS011;12268;52.110;5.548;2022-12-29T18:01:20;6.95;;;1.63;;
24084;SDS011;12268;52.110;5.548;2022-12-29T18:03:46;6.60;;;1.38;;
24084;SDS011;12268;52.110;5.548;2022-12-29T18:06:12;13.38;;;1.95;;
24084;SDS011;12268;52.110;5.548;2022-12-29T18:08:38;6.38;;;1.50;;
24084;SDS011;12268;52.110;5.548;2022-12-29T18:11:05;7.47;;;1.85;;
24084;SDS011;12268;52.110;5.548;2022-12-29T18:13:48;9.68;;;2.33;;
24084;SDS011;12268;52.110;5.548;2022-12-29T18:16:13;6.63;;;1.60;;
24084;SDS011;12268;52.110;5.548;2022-12-29T18:18:39;6.88;;;1.85;;
24084;SDS011;12268;52.110;5.548;2022-12-29T18:21:05;7.35;;;1.85;;
24084;SDS011;12268;52.110;5.548;2022-12-29T18:23:31;6.20;;;1.63;;
24084;SDS011;12268;52.110;5.548;2022-12-29T18:26:04;4.50;;;1.30;;
24084;SDS011;12268;52.110;5.548;2022-12-29T18:28:45;7.90;;;1.65;;
24084;SDS011;12268;52.110;5.548;2022-12-29T18:31:20;6.18;;;1.48;;
24084;SDS011;12268;52.110;5.548;2022-12-29T18:33:51;5.85;;;1.45;;
24084;SDS011;12268;52.110;5.548;2022-12-29T18:36:18;7.07;;;1.73;;